sensor_id;sensor_type;location;lat;lon;timestamp;temperature;humidity
75719;DHT22;64340;48.534;-3.036;2022-12-28T00:00:50;17.80;65.90
75719;DHT22;64340;48.534;-3.036;2022-12-28T00:03:16;17.80;65.80
75719;DHT22;64340;48.534;-3.036;2022-12-28T00:05:41;17.80;65.90
75719;DHT22;64340;48.534;-3.036;2022-12-28T00:08:07;17.80;65.90
75719;DHT22;64340;48.534;-3.036;2022-12-28T00:10:33;17.80;66.00
75719;DHT22;64340;48.534;-3.036;2022-12-28T00:12:58;17.80;65.90
75719;DHT22;64340;48.534;-3.036;2022-12-28T00:15:24;17.80;65.80
75719;DHT22;64340;48.534;-3.036;2022-12-28T00:17:49;17.80;65.80
75719;DHT22;64340;48.534;-3.036;2022-12-28T00:20:15;17.80;65.90
75719;DHT22;64340;48.534;-3.036;2022-12-28T00:22:40;17.80;65.80
75719;DHT22;64340;48.534;-3.036;2022-12-28T00:25:09;17.80;65.70
75719;DHT22;64340;48.534;-3.036;2022-12-28T00:27:34;17.80;65.80
75719;DHT22;64340;48.534;-3.036;2022-12-28T00:30:00;17.80;65.80
75719;DHT22;64340;48.534;-3.036;2022-12-28T00:32:27;17.80;65.80
75719;DHT22;64340;48.534;-3.036;2022-12-28T00:34:52;17.80;65.70
75719;DHT22;64340;48.534;-3.036;2022-12-28T00:37:18;17.70;65.60
75719;DHT22;64340;48.534;-3.036;2022-12-28T00:39:43;17.70;65.70
75719;DHT22;64340;48.534;-3.036;2022-12-28T00:42:09;17.70;65.60
75719;DHT22;64340;48.534;-3.036;2022-12-28T00:44:35;17.70;65.70
75719;DHT22;64340;48.534;-3.036;2022-12-28T00:47:00;17.70;65.70
75719;DHT22;64340;48.534;-3.036;2022-12-28T00:49:26;17.60;65.70
75719;DHT22;64340;48.534;-3.036;2022-12-28T00:51:51;17.60;65.60
75719;DHT22;64340;48.534;-3.036;2022-12-28T00:54:17;17.60;65.70
75719;DHT22;64340;48.534;-3.036;2022-12-28T00:56:42;17.60;65.70
75719;DHT22;64340;48.534;-3.036;2022-12-28T00:59:08;17.60;65.60
75719;DHT22;64340;48.534;-3.036;2022-12-28T01:01:34;17.60;65.60
75719;DHT22;64340;48.534;-3.036;2022-12-28T01:03:59;17.60;65.60
75719;DHT22;64340;48.534;-3.036;2022-12-28T01:06:26;17.60;65.60
75719;DHT22;64340;48.534;-3.036;2022-12-28T01:08:51;17.60;65.60
75719;DHT22;64340;48.534;-3.036;2022-12-28T01:11:18;17.60;65.60
75719;DHT22;64340;48.534;-3.036;2022-12-28T01:13:45;17.50;65.70
75719;DHT22;64340;48.534;-3.036;2022-12-28T01:16:11;17.50;65.60
75719;DHT22;64340;48.534;-3.036;2022-12-28T01:18:38;17.50;65.60
75719;DHT22;64340;48.534;-3.036;2022-12-28T01:21:22;17.50;65.60
75719;DHT22;64340;48.534;-3.036;2022-12-28T01:23:52;17.50;65.70
75719;DHT22;64340;48.534;-3.036;2022-12-28T01:26:17;17.50;65.70
75719;DHT22;64340;48.534;-3.036;2022-12-28T01:28:43;17.50;65.60
75719;DHT22;64340;48.534;-3.036;2022-12-28T01:31:09;17.50;65.60
75719;DHT22;64340;48.534;-3.036;2022-12-28T01:33:35;17.50;65.60
75719;DHT22;64340;48.534;-3.036;2022-12-28T01:36:08;17.50;65.60
75719;DHT22;64340;48.534;-3.036;2022-12-28T01:38:34;17.50;65.60
75719;DHT22;64340;48.534;-3.036;2022-12-28T01:41:00;17.50;65.70
75719;DHT22;64340;48.534;-3.036;2022-12-28T01:43:41;17.40;65.70
75719;DHT22;64340;48.534;-3.036;2022-12-28T01:46:07;17.40;65.70
75719;DHT22;64340;48.534;-3.036;2022-12-28T01:48:34;17.40;65.60
75719;DHT22;64340;48.534;-3.036;2022-12-28T01:51:01;17.40;65.60
75719;DHT22;64340;48.534;-3.036;2022-12-28T01:53:27;17.40;65.60
75719;DHT22;64340;48.534;-3.036;2022-12-28T01:55:54;17.40;65.60
75719;DHT22;64340;48.534;-3.036;2022-12-28T01:58:22;17.40;65.50
75719;DHT22;64340;48.534;-3.036;2022-12-28T02:00:50;17.30;65.60
75719;DHT22;64340;48.534;-3.036;2022-12-28T02:03:18;17.30;65.50
75719;DHT22;64340;48.534;-3.036;2022-12-28T02:05:47;17.30;65.70
75719;DHT22;64340;48.534;-3.036;2022-12-28T02:08:25;17.20;65.60
75719;DHT22;64340;48.534;-3.036;2022-12-28T02:10:52;17.20;65.60
75719;DHT22;64340;48.534;-3.036;2022-12-28T02:13:18;17.20;65.50
75719;DHT22;64340;48.534;-3.036;2022-12-28T02:15:45;17.20;65.60
75719;DHT22;64340;48.534;-3.036;2022-12-28T02:18:11;17.20;65.50
75719;DHT22;64340;48.534;-3.036;2022-12-28T02:20:44;17.20;65.60
75719;DHT22;64340;48.534;-3.036;2022-12-28T02:31:12;17.20;65.60
75719;DHT22;64340;48.534;-3.036;2022-12-28T02:33:42;17.20;65.50
75719;DHT22;64340;48.534;-3.036;2022-12-28T02:36:42;17.20;65.50
75719;DHT22;64340;48.534;-3.036;2022-12-28T02:39:02;17.20;65.50
75719;DHT22;64340;48.534;-3.036;2022-12-28T02:41:29;17.10;65.50
75719;DHT22;64340;48.534;-3.036;2022-12-28T02:43:55;17.10;65.50
75719;DHT22;64340;48.534;-3.036;2022-12-28T02:46:29;17.10;65.50
75719;DHT22;64340;48.534;-3.036;2022-12-28T02:49:17;17.00;65.50
75719;DHT22;64340;48.534;-3.036;2022-12-28T03:00:20;17.00;65.60
75719;DHT22;64340;48.534;-3.036;2022-12-28T03:05:43;17.00;65.60
75719;DHT22;64340;48.534;-3.036;2022-12-28T03:08:36;17.00;65.50
75719;DHT22;64340;48.534;-3.036;2022-12-28T03:11:06;16.90;65.50
75719;DHT22;64340;48.534;-3.036;2022-12-28T03:16:08;16.90;65.50
75719;DHT22;64340;48.534;-3.036;2022-12-28T03:18:35;16.90;65.60
75719;DHT22;64340;48.534;-3.036;2022-12-28T03:21:21;16.90;65.60
75719;DHT22;64340;48.534;-3.036;2022-12-28T03:24:06;16.90;65.60
75719;DHT22;64340;48.534;-3.036;2022-12-28T03:26:53;16.80;65.50
75719;DHT22;64340;48.534;-3.036;2022-12-28T03:29:46;16.80;65.50
75719;DHT22;64340;48.534;-3.036;2022-12-28T03:32:31;16.80;65.50
75719;DHT22;64340;48.534;-3.036;2022-12-28T03:34:56;16.80;65.50
75719;DHT22;64340;48.534;-3.036;2022-12-28T03:40:21;16.80;65.50
75719;DHT22;64340;48.534;-3.036;2022-12-28T03:42:48;16.80;65.50
75719;DHT22;64340;48.534;-3.036;2022-12-28T03:48:02;16.70;65.60
75719;DHT22;64340;48.534;-3.036;2022-12-28T03:50:29;16.70;65.60
75719;DHT22;64340;48.534;-3.036;2022-12-28T03:52:56;16.70;65.60
75719;DHT22;64340;48.534;-3.036;2022-12-28T03:55:22;16.70;65.60
75719;DHT22;64340;48.534;-3.036;2022-12-28T03:57:48;16.70;65.60
75719;DHT22;64340;48.534;-3.036;2022-12-28T04:00:14;16.70;65.60
75719;DHT22;64340;48.534;-3.036;2022-12-28T04:02:39;16.60;65.60
75719;DHT22;64340;48.534;-3.036;2022-12-28T04:05:05;16.60;65.60
75719;DHT22;64340;48.534;-3.036;2022-12-28T04:07:30;16.60;65.50
75719;DHT22;64340;48.534;-3.036;2022-12-28T04:09:56;16.60;65.60
75719;DHT22;64340;48.534;-3.036;2022-12-28T04:12:22;16.60;65.60
75719;DHT22;64340;48.534;-3.036;2022-12-28T04:14:47;16.60;65.50
75719;DHT22;64340;48.534;-3.036;2022-12-28T04:17:13;16.60;65.60
75719;DHT22;64340;48.534;-3.036;2022-12-28T04:19:38;16.60;65.50
75719;DHT22;64340;48.534;-3.036;2022-12-28T04:22:04;16.60;65.60
75719;DHT22;64340;48.534;-3.036;2022-12-28T04:24:29;16.50;65.50
75719;DHT22;64340;48.534;-3.036;2022-12-28T04:26:58;16.50;65.50
75719;DHT22;64340;48.534;-3.036;2022-12-28T04:29:23;16.50;65.60
75719;DHT22;64340;48.534;-3.036;2022-12-28T04:31:49;16.50;65.50
75719;DHT22;64340;48.534;-3.036;2022-12-28T04:34:14;16.50;65.50
75719;DHT22;64340;48.534;-3.036;2022-12-28T04:36:40;16.50;65.50
75719;DHT22;64340;48.534;-3.036;2022-12-28T04:39:07;16.50;65.50
75719;DHT22;64340;48.534;-3.036;2022-12-28T04:41:32;16.50;65.50
75719;DHT22;64340;48.534;-3.036;2022-12-28T04:43:58;16.50;65.50
75719;DHT22;64340;48.534;-3.036;2022-12-28T04:46:24;16.40;65.50
75719;DHT22;64340;48.534;-3.036;2022-12-28T04:48:50;16.40;65.50
75719;DHT22;64340;48.534;-3.036;2022-12-28T04:51:17;16.40;65.50
75719;DHT22;64340;48.534;-3.036;2022-12-28T04:53:43;16.40;65.50
75719;DHT22;64340;48.534;-3.036;2022-12-28T04:56:09;16.40;65.50
75719;DHT22;64340;48.534;-3.036;2022-12-28T04:58:35;16.40;65.50
75719;DHT22;64340;48.534;-3.036;2022-12-28T05:01:04;16.40;65.60
75719;DHT22;64340;48.534;-3.036;2022-12-28T05:03:30;16.40;65.60
75719;DHT22;64340;48.534;-3.036;2022-12-28T05:06:00;16.40;65.60
75719;DHT22;64340;48.534;-3.036;2022-12-28T05:08:25;16.40;65.60
75719;DHT22;64340;48.534;-3.036;2022-12-28T05:10:51;16.40;65.60
75719;DHT22;64340;48.534;-3.036;2022-12-28T05:13:16;16.40;65.50
75719;DHT22;64340;48.534;-3.036;2022-12-28T05:15:42;16.40;65.50
75719;DHT22;64340;48.534;-3.036;2022-12-28T05:18:08;16.40;65.50
75719;DHT22;64340;48.534;-3.036;2022-12-28T05:20:33;16.40;65.50
75719;DHT22;64340;48.534;-3.036;2022-12-28T05:22:59;16.40;65.50
75719;DHT22;64340;48.534;-3.036;2022-12-28T05:25:24;16.30;65.50
75719;DHT22;64340;48.534;-3.036;2022-12-28T05:27:50;16.30;65.50
75719;DHT22;64340;48.534;-3.036;2022-12-28T05:30:16;16.30;65.60
75719;DHT22;64340;48.534;-3.036;2022-12-28T05:32:41;16.30;65.60
75719;DHT22;64340;48.534;-3.036;2022-12-28T05:35:07;16.30;65.50
75719;DHT22;64340;48.534;-3.036;2022-12-28T05:37:33;16.20;65.60
75719;DHT22;64340;48.534;-3.036;2022-12-28T05:39:58;16.30;65.60
75719;DHT22;64340;48.534;-3.036;2022-12-28T05:42:24;16.30;65.60
75719;DHT22;64340;48.534;-3.036;2022-12-28T05:44:50;16.20;65.50
75719;DHT22;64340;48.534;-3.036;2022-12-28T05:47:15;16.20;65.50
75719;DHT22;64340;48.534;-3.036;2022-12-28T05:49:41;16.20;65.60
75719;DHT22;64340;48.534;-3.036;2022-12-28T05:52:06;16.20;65.60
75719;DHT22;64340;48.534;-3.036;2022-12-28T05:54:32;16.20;65.50
75719;DHT22;64340;48.534;-3.036;2022-12-28T05:56:57;16.20;65.60
75719;DHT22;64340;48.534;-3.036;2022-12-28T05:59:23;16.20;65.60
75719;DHT22;64340;48.534;-3.036;2022-12-28T06:01:49;16.20;65.60
75719;DHT22;64340;48.534;-3.036;2022-12-28T06:04:16;16.20;65.60
75719;DHT22;64340;48.534;-3.036;2022-12-28T06:06:42;16.20;65.60
75719;DHT22;64340;48.534;-3.036;2022-12-28T06:09:08;16.10;65.60
75719;DHT22;64340;48.534;-3.036;2022-12-28T06:11:33;16.10;65.70
75719;DHT22;64340;48.534;-3.036;2022-12-28T06:13:59;16.20;65.60
75719;DHT22;64340;48.534;-3.036;2022-12-28T06:16:29;16.10;65.60
75719;DHT22;64340;48.534;-3.036;2022-12-28T06:18:55;16.10;65.60
75719;DHT22;64340;48.534;-3.036;2022-12-28T06:21:25;16.10;65.70
75719;DHT22;64340;48.534;-3.036;2022-12-28T06:23:52;16.10;65.70
75719;DHT22;64340;48.534;-3.036;2022-12-28T06:26:19;16.10;65.70
75719;DHT22;64340;48.534;-3.036;2022-12-28T06:28:45;16.10;65.70
75719;DHT22;64340;48.534;-3.036;2022-12-28T06:31:12;16.10;65.80
75719;DHT22;64340;48.534;-3.036;2022-12-28T06:33:37;16.10;65.70
75719;DHT22;64340;48.534;-3.036;2022-12-28T06:36:03;16.10;65.80
75719;DHT22;64340;48.534;-3.036;2022-12-28T06:38:30;16.10;65.70
75719;DHT22;64340;48.534;-3.036;2022-12-28T06:41:03;16.00;65.80
75719;DHT22;64340;48.534;-3.036;2022-12-28T06:43:30;16.00;65.80
75719;DHT22;64340;48.534;-3.036;2022-12-28T06:45:56;16.00;65.80
75719;DHT22;64340;48.534;-3.036;2022-12-28T06:48:22;16.00;65.80
75719;DHT22;64340;48.534;-3.036;2022-12-28T06:51:07;16.00;65.80
75719;DHT22;64340;48.534;-3.036;2022-12-28T06:53:33;16.00;65.80
75719;DHT22;64340;48.534;-3.036;2022-12-28T06:56:00;16.00;65.80
75719;DHT22;64340;48.534;-3.036;2022-12-28T06:58:26;16.00;65.80
75719;DHT22;64340;48.534;-3.036;2022-12-28T07:00:52;16.00;65.80
75719;DHT22;64340;48.534;-3.036;2022-12-28T07:03:19;16.00;65.90
75719;DHT22;64340;48.534;-3.036;2022-12-28T07:05:45;16.00;65.90
75719;DHT22;64340;48.534;-3.036;2022-12-28T07:08:10;16.00;65.90
75719;DHT22;64340;48.534;-3.036;2022-12-28T07:10:36;16.00;65.90
75719;DHT22;64340;48.534;-3.036;2022-12-28T07:13:02;16.00;65.90
75719;DHT22;64340;48.534;-3.036;2022-12-28T07:15:28;16.00;65.90
75719;DHT22;64340;48.534;-3.036;2022-12-28T07:17:53;15.90;65.90
75719;DHT22;64340;48.534;-3.036;2022-12-28T07:20:19;15.90;65.90
75719;DHT22;64340;48.534;-3.036;2022-12-28T07:22:45;15.90;65.90
75719;DHT22;64340;48.534;-3.036;2022-12-28T07:25:10;15.90;66.00
75719;DHT22;64340;48.534;-3.036;2022-12-28T07:27:36;15.90;66.00
75719;DHT22;64340;48.534;-3.036;2022-12-28T07:30:01;15.80;65.90
75719;DHT22;64340;48.534;-3.036;2022-12-28T07:32:27;15.80;66.10
75719;DHT22;64340;48.534;-3.036;2022-12-28T07:34:53;15.80;66.00
75719;DHT22;64340;48.534;-3.036;2022-12-28T07:37:18;15.80;66.00
75719;DHT22;64340;48.534;-3.036;2022-12-28T07:39:44;15.80;66.00
75719;DHT22;64340;48.534;-3.036;2022-12-28T07:42:10;15.80;65.90
75719;DHT22;64340;48.534;-3.036;2022-12-28T07:44:37;15.90;66.00
75719;DHT22;64340;48.534;-3.036;2022-12-28T07:47:02;15.90;65.90
75719;DHT22;64340;48.534;-3.036;2022-12-28T07:49:28;15.90;65.90
75719;DHT22;64340;48.534;-3.036;2022-12-28T07:51:54;15.90;65.90
75719;DHT22;64340;48.534;-3.036;2022-12-28T07:54:19;15.90;66.10
75719;DHT22;64340;48.534;-3.036;2022-12-28T07:56:45;15.80;66.20
75719;DHT22;64340;48.534;-3.036;2022-12-28T07:59:10;15.90;66.20
75719;DHT22;64340;48.534;-3.036;2022-12-28T08:01:38;15.90;66.20
75719;DHT22;64340;48.534;-3.036;2022-12-28T08:04:05;15.90;66.20
75719;DHT22;64340;48.534;-3.036;2022-12-28T08:06:32;16.00;66.40
75719;DHT22;64340;48.534;-3.036;2022-12-28T08:08:58;15.90;66.20
75719;DHT22;64340;48.534;-3.036;2022-12-28T08:11:25;15.90;66.20
75719;DHT22;64340;48.534;-3.036;2022-12-28T08:13:52;15.80;66.20
75719;DHT22;64340;48.534;-3.036;2022-12-28T08:16:18;15.90;66.50
75719;DHT22;64340;48.534;-3.036;2022-12-28T08:18:44;16.00;66.50
75719;DHT22;64340;48.534;-3.036;2022-12-28T08:21:12;16.00;67.70
75719;DHT22;64340;48.534;-3.036;2022-12-28T08:23:38;16.00;67.20
75719;DHT22;64340;48.534;-3.036;2022-12-28T08:26:07;16.00;67.10
75719;DHT22;64340;48.534;-3.036;2022-12-28T08:28:33;16.00;66.90
75719;DHT22;64340;48.534;-3.036;2022-12-28T08:31:03;16.00;67.00
75719;DHT22;64340;48.534;-3.036;2022-12-28T08:33:29;16.00;67.00
75719;DHT22;64340;48.534;-3.036;2022-12-28T08:35:55;16.00;66.90
75719;DHT22;64340;48.534;-3.036;2022-12-28T08:38:21;16.00;66.80
75719;DHT22;64340;48.534;-3.036;2022-12-28T08:40:53;16.00;66.80
75719;DHT22;64340;48.534;-3.036;2022-12-28T08:43:18;16.00;66.60
75719;DHT22;64340;48.534;-3.036;2022-12-28T08:45:44;16.00;66.80
75719;DHT22;64340;48.534;-3.036;2022-12-28T08:48:10;16.00;67.00
75719;DHT22;64340;48.534;-3.036;2022-12-28T08:50:35;16.00;66.90
75719;DHT22;64340;48.534;-3.036;2022-12-28T08:53:01;16.00;67.00
75719;DHT22;64340;48.534;-3.036;2022-12-28T08:55:26;16.10;67.10
75719;DHT22;64340;48.534;-3.036;2022-12-28T08:57:52;16.10;67.00
75719;DHT22;64340;48.534;-3.036;2022-12-28T09:00:17;16.10;66.90
75719;DHT22;64340;48.534;-3.036;2022-12-28T09:02:43;16.10;67.10
75719;DHT22;64340;48.534;-3.036;2022-12-28T09:05:09;16.10;67.00
75719;DHT22;64340;48.534;-3.036;2022-12-28T09:07:34;16.10;67.10
75719;DHT22;64340;48.534;-3.036;2022-12-28T09:10:00;16.10;67.00
75719;DHT22;64340;48.534;-3.036;2022-12-28T09:12:25;16.10;66.90
75719;DHT22;64340;48.534;-3.036;2022-12-28T09:14:51;16.10;67.00
75719;DHT22;64340;48.534;-3.036;2022-12-28T09:17:17;16.10;67.00
75719;DHT22;64340;48.534;-3.036;2022-12-28T09:19:45;16.10;67.10
75719;DHT22;64340;48.534;-3.036;2022-12-28T09:22:10;16.20;66.90
75719;DHT22;64340;48.534;-3.036;2022-12-28T09:24:38;16.10;66.70
75719;DHT22;64340;48.534;-3.036;2022-12-28T09:27:04;16.10;66.90
75719;DHT22;64340;48.534;-3.036;2022-12-28T09:29:30;16.20;67.10
75719;DHT22;64340;48.534;-3.036;2022-12-28T09:31:55;16.20;67.00
75719;DHT22;64340;48.534;-3.036;2022-12-28T09:34:22;16.20;67.10
75719;DHT22;64340;48.534;-3.036;2022-12-28T09:36:47;16.20;67.10
75719;DHT22;64340;48.534;-3.036;2022-12-28T09:39:22;16.20;67.50
75719;DHT22;64340;48.534;-3.036;2022-12-28T09:46:41;16.30;67.50
75719;DHT22;64340;48.534;-3.036;2022-12-28T09:49:14;16.40;67.20
75719;DHT22;64340;48.534;-3.036;2022-12-28T09:51:42;16.40;67.50
75719;DHT22;64340;48.534;-3.036;2022-12-28T09:54:10;16.40;69.20
75719;DHT22;64340;48.534;-3.036;2022-12-28T09:56:36;16.40;70.00
75719;DHT22;64340;48.534;-3.036;2022-12-28T09:59:04;16.40;70.40
75719;DHT22;64340;48.534;-3.036;2022-12-28T10:01:31;16.40;70.00
75719;DHT22;64340;48.534;-3.036;2022-12-28T10:03:59;16.40;70.50
75719;DHT22;64340;48.534;-3.036;2022-12-28T10:06:26;16.40;70.70
75719;DHT22;64340;48.534;-3.036;2022-12-28T10:08:53;16.40;70.80
75719;DHT22;64340;48.534;-3.036;2022-12-28T10:11:24;16.40;70.30
75719;DHT22;64340;48.534;-3.036;2022-12-28T10:13:54;16.40;70.40
75719;DHT22;64340;48.534;-3.036;2022-12-28T10:16:20;16.40;70.30
75719;DHT22;64340;48.534;-3.036;2022-12-28T10:18:46;16.40;70.10
75719;DHT22;64340;48.534;-3.036;2022-12-28T10:21:13;16.40;70.20
75719;DHT22;64340;48.534;-3.036;2022-12-28T10:23:39;16.40;70.00
75719;DHT22;64340;48.534;-3.036;2022-12-28T10:26:05;16.40;69.70
75719;DHT22;64340;48.534;-3.036;2022-12-28T10:28:50;16.40;69.70
75719;DHT22;64340;48.534;-3.036;2022-12-28T10:31:28;16.40;69.70
75719;DHT22;64340;48.534;-3.036;2022-12-28T10:33:54;16.40;69.50
75719;DHT22;64340;48.534;-3.036;2022-12-28T10:36:20;16.40;69.30
75719;DHT22;64340;48.534;-3.036;2022-12-28T10:38:53;16.40;69.10
75719;DHT22;64340;48.534;-3.036;2022-12-28T10:41:20;16.40;69.00
75719;DHT22;64340;48.534;-3.036;2022-12-28T10:43:48;16.40;69.00
75719;DHT22;64340;48.534;-3.036;2022-12-28T10:46:23;16.40;68.90
75719;DHT22;64340;48.534;-3.036;2022-12-28T10:48:50;16.40;68.90
75719;DHT22;64340;48.534;-3.036;2022-12-28T10:51:18;16.40;68.90
75719;DHT22;64340;48.534;-3.036;2022-12-28T10:53:45;16.40;69.00
75719;DHT22;64340;48.534;-3.036;2022-12-28T10:58:40;16.40;68.90
75719;DHT22;64340;48.534;-3.036;2022-12-28T11:01:15;16.50;68.60
75719;DHT22;64340;48.534;-3.036;2022-12-28T11:03:44;16.40;68.50
75719;DHT22;64340;48.534;-3.036;2022-12-28T11:08:39;16.30;70.70
75719;DHT22;64340;48.534;-3.036;2022-12-28T11:11:06;16.20;70.50
75719;DHT22;64340;48.534;-3.036;2022-12-28T11:13:31;16.20;70.30
75719;DHT22;64340;48.534;-3.036;2022-12-28T11:15:58;16.40;70.60
75719;DHT22;64340;48.534;-3.036;2022-12-28T11:18:23;16.50;69.90
75719;DHT22;64340;48.534;-3.036;2022-12-28T11:20:50;16.60;69.50
75719;DHT22;64340;48.534;-3.036;2022-12-28T11:23:17;16.80;69.00
75719;DHT22;64340;48.534;-3.036;2022-12-28T11:25:43;16.80;68.80
75719;DHT22;64340;48.534;-3.036;2022-12-28T11:28:13;16.90;68.30
75719;DHT22;64340;48.534;-3.036;2022-12-28T11:30:41;17.00;68.40
75719;DHT22;64340;48.534;-3.036;2022-12-28T11:33:19;17.00;68.40
75719;DHT22;64340;48.534;-3.036;2022-12-28T11:35:47;17.00;68.60
75719;DHT22;64340;48.534;-3.036;2022-12-28T11:38:35;17.00;68.60
75719;DHT22;64340;48.534;-3.036;2022-12-28T11:40:59;17.10;68.50
75719;DHT22;64340;48.534;-3.036;2022-12-28T11:45:54;17.20;68.40
75719;DHT22;64340;48.534;-3.036;2022-12-28T11:51:12;17.40;68.20
75719;DHT22;64340;48.534;-3.036;2022-12-28T11:53:47;17.40;68.40
75719;DHT22;64340;48.534;-3.036;2022-12-28T11:56:14;17.50;68.70
75719;DHT22;64340;48.534;-3.036;2022-12-28T12:01:49;17.70;69.20
75719;DHT22;64340;48.534;-3.036;2022-12-28T12:11:50;17.80;68.80
75719;DHT22;64340;48.534;-3.036;2022-12-28T12:14:17;18.00;69.00
75719;DHT22;64340;48.534;-3.036;2022-12-28T12:16:47;18.00;69.20
75719;DHT22;64340;48.534;-3.036;2022-12-28T12:19:21;18.00;69.00
75719;DHT22;64340;48.534;-3.036;2022-12-28T12:21:52;18.00;69.00
75719;DHT22;64340;48.534;-3.036;2022-12-28T12:24:26;18.00;69.10
75719;DHT22;64340;48.534;-3.036;2022-12-28T12:26:58;18.10;68.70
75719;DHT22;64340;48.534;-3.036;2022-12-28T12:29:42;18.20;68.50
75719;DHT22;64340;48.534;-3.036;2022-12-28T12:32:12;18.20;68.60
75719;DHT22;64340;48.534;-3.036;2022-12-28T12:37:09;18.20;68.50
75719;DHT22;64340;48.534;-3.036;2022-12-28T12:44:48;18.20;68.20
75719;DHT22;64340;48.534;-3.036;2022-12-28T12:57:19;18.50;67.20
75719;DHT22;64340;48.534;-3.036;2022-12-28T13:02:18;18.30;68.40
75719;DHT22;64340;48.534;-3.036;2022-12-28T13:04:45;18.40;68.50
75719;DHT22;64340;48.534;-3.036;2022-12-28T13:07:18;18.40;68.70
75719;DHT22;64340;48.534;-3.036;2022-12-28T13:09:45;18.40;68.70
75719;DHT22;64340;48.534;-3.036;2022-12-28T13:12:17;18.40;69.00
75719;DHT22;64340;48.534;-3.036;2022-12-28T13:14:44;18.40;68.90
75719;DHT22;64340;48.534;-3.036;2022-12-28T13:17:20;18.40;68.90
75719;DHT22;64340;48.534;-3.036;2022-12-28T13:19:46;18.40;69.00
75719;DHT22;64340;48.534;-3.036;2022-12-28T13:22:33;18.50;69.00
75719;DHT22;64340;48.534;-3.036;2022-12-28T13:24:58;18.60;69.10
75719;DHT22;64340;48.534;-3.036;2022-12-28T13:27:24;18.60;68.80
75719;DHT22;64340;48.534;-3.036;2022-12-28T13:29:51;18.70;68.50
75719;DHT22;64340;48.534;-3.036;2022-12-28T13:32:29;18.80;68.80
75719;DHT22;64340;48.534;-3.036;2022-12-28T13:34:56;18.90;68.60
75719;DHT22;64340;48.534;-3.036;2022-12-28T13:37:22;19.10;68.40
75719;DHT22;64340;48.534;-3.036;2022-12-28T13:39:47;19.10;68.20
75719;DHT22;64340;48.534;-3.036;2022-12-28T13:42:16;19.10;68.50
75719;DHT22;64340;48.534;-3.036;2022-12-28T13:47:13;19.10;68.80
75719;DHT22;64340;48.534;-3.036;2022-12-28T13:49:59;19.10;68.40
75719;DHT22;64340;48.534;-3.036;2022-12-28T13:52:39;19.10;68.30
75719;DHT22;64340;48.534;-3.036;2022-12-28T13:55:12;19.10;68.20
75719;DHT22;64340;48.534;-3.036;2022-12-28T13:57:39;19.00;68.40
75719;DHT22;64340;48.534;-3.036;2022-12-28T14:00:07;19.00;68.50
75719;DHT22;64340;48.534;-3.036;2022-12-28T14:02:33;19.00;68.90
75719;DHT22;64340;48.534;-3.036;2022-12-28T14:04:59;19.00;69.00
75719;DHT22;64340;48.534;-3.036;2022-12-28T14:07:26;18.90;69.40
75719;DHT22;64340;48.534;-3.036;2022-12-28T14:09:53;18.90;69.20
75719;DHT22;64340;48.534;-3.036;2022-12-28T14:12:19;18.90;69.40
75719;DHT22;64340;48.534;-3.036;2022-12-28T14:14:46;19.00;68.80
75719;DHT22;64340;48.534;-3.036;2022-12-28T14:17:12;19.00;69.10
75719;DHT22;64340;48.534;-3.036;2022-12-28T14:19:38;19.00;68.90
75719;DHT22;64340;48.534;-3.036;2022-12-28T14:22:26;19.00;69.00
75719;DHT22;64340;48.534;-3.036;2022-12-28T14:24:59;18.90;69.00
75719;DHT22;64340;48.534;-3.036;2022-12-28T14:27:25;18.90;69.20
75719;DHT22;64340;48.534;-3.036;2022-12-28T14:29:51;19.00;69.30
75719;DHT22;64340;48.534;-3.036;2022-12-28T14:32:16;19.00;69.20
75719;DHT22;64340;48.534;-3.036;2022-12-28T14:34:42;19.00;69.30
75719;DHT22;64340;48.534;-3.036;2022-12-28T14:37:16;19.00;69.20
75719;DHT22;64340;48.534;-3.036;2022-12-28T14:39:45;19.00;69.30
75719;DHT22;64340;48.534;-3.036;2022-12-28T14:42:29;19.00;69.50
75719;DHT22;64340;48.534;-3.036;2022-12-28T14:44:54;19.00;69.60
75719;DHT22;64340;48.534;-3.036;2022-12-28T14:50:02;19.20;69.10
75719;DHT22;64340;48.534;-3.036;2022-12-28T14:54:57;19.20;69.30
75719;DHT22;64340;48.534;-3.036;2022-12-28T14:59:50;19.20;69.20
75719;DHT22;64340;48.534;-3.036;2022-12-28T15:05:00;19.30;69.20
75719;DHT22;64340;48.534;-3.036;2022-12-28T15:07:25;19.30;69.10
75719;DHT22;64340;48.534;-3.036;2022-12-28T15:09:51;19.30;69.30
75719;DHT22;64340;48.534;-3.036;2022-12-28T15:12:18;19.30;68.30
75719;DHT22;64340;48.534;-3.036;2022-12-28T15:14:50;19.40;68.30
75719;DHT22;64340;48.534;-3.036;2022-12-28T15:17:16;19.50;69.00
75719;DHT22;64340;48.534;-3.036;2022-12-28T15:19:41;19.50;68.40
75719;DHT22;64340;48.534;-3.036;2022-12-28T15:22:07;19.40;67.80
75719;DHT22;64340;48.534;-3.036;2022-12-28T15:24:33;19.30;67.80
75719;DHT22;64340;48.534;-3.036;2022-12-28T15:27:00;19.20;67.80
75719;DHT22;64340;48.534;-3.036;2022-12-28T15:29:25;19.20;67.90
75719;DHT22;64340;48.534;-3.036;2022-12-28T15:31:51;19.20;67.50
75719;DHT22;64340;48.534;-3.036;2022-12-28T15:34:16;19.20;67.40
75719;DHT22;64340;48.534;-3.036;2022-12-28T15:36:42;19.20;67.30
75719;DHT22;64340;48.534;-3.036;2022-12-28T15:39:13;19.10;67.00
75719;DHT22;64340;48.534;-3.036;2022-12-28T15:41:39;19.10;67.10
75719;DHT22;64340;48.534;-3.036;2022-12-28T15:44:11;19.20;67.10
75719;DHT22;64340;48.534;-3.036;2022-12-28T15:46:36;19.20;67.70
75719;DHT22;64340;48.534;-3.036;2022-12-28T15:49:05;19.30;67.40
75719;DHT22;64340;48.534;-3.036;2022-12-28T15:51:31;19.30;67.50
75719;DHT22;64340;48.534;-3.036;2022-12-28T15:53:57;19.50;67.20
75719;DHT22;64340;48.534;-3.036;2022-12-28T15:56:26;19.40;67.10
75719;DHT22;64340;48.534;-3.036;2022-12-28T15:58:53;19.40;67.60
75719;DHT22;64340;48.534;-3.036;2022-12-28T16:01:20;19.40;67.60
75719;DHT22;64340;48.534;-3.036;2022-12-28T16:03:49;19.40;68.00
75719;DHT22;64340;48.534;-3.036;2022-12-28T16:06:16;19.30;66.50
75719;DHT22;64340;48.534;-3.036;2022-12-28T16:08:41;19.10;65.90
75719;DHT22;64340;48.534;-3.036;2022-12-28T16:11:11;18.90;66.10
75719;DHT22;64340;48.534;-3.036;2022-12-28T16:13:37;18.90;66.20
75719;DHT22;64340;48.534;-3.036;2022-12-28T16:16:06;18.90;66.70
75719;DHT22;64340;48.534;-3.036;2022-12-28T16:18:32;18.80;66.50
75719;DHT22;64340;48.534;-3.036;2022-12-28T16:21:01;18.80;66.60
75719;DHT22;64340;48.534;-3.036;2022-12-28T16:23:31;18.90;66.50
75719;DHT22;64340;48.534;-3.036;2022-12-28T16:25:57;19.00;67.60
75719;DHT22;64340;48.534;-3.036;2022-12-28T16:28:23;19.10;67.90
75719;DHT22;64340;48.534;-3.036;2022-12-28T16:30:48;19.10;67.80
75719;DHT22;64340;48.534;-3.036;2022-12-28T16:33:15;19.20;67.90
75719;DHT22;64340;48.534;-3.036;2022-12-28T16:35:41;19.30;67.20
75719;DHT22;64340;48.534;-3.036;2022-12-28T16:38:17;19.40;67.00
75719;DHT22;64340;48.534;-3.036;2022-12-28T16:40:43;19.40;67.00
75719;DHT22;64340;48.534;-3.036;2022-12-28T16:43:09;19.30;67.50
75719;DHT22;64340;48.534;-3.036;2022-12-28T16:45:35;19.30;67.90